createdAt,value
2022-08-20T00:04:49.764Z,17.90
2022-08-20T00:10:51.456Z,18.07
2022-08-20T00:16:49.971Z,18.13
2022-08-20T00:22:44.000Z,16.40
2022-08-20T00:28:39.692Z,15.60
2022-08-20T00:34:36.535Z,15.43
2022-08-20T00:40:35.928Z,16.33
2022-08-20T00:46:31.133Z,16.40
2022-08-20T00:52:29.828Z,15.20
2022-08-20T00:58:23.859Z,15.23
2022-08-20T01:04:17.302Z,15.67
2022-08-20T01:10:19.463Z,14.77
2022-08-20T01:16:19.962Z,13.90
2022-08-20T01:22:36.579Z,14.07
2022-08-20T01:28:37.185Z,13.67
2022-08-20T01:34:31.038Z,13.30
2022-08-20T01:40:37.208Z,13.93
2022-08-20T01:46:38.919Z,13.60
2022-08-20T01:52:43.222Z,12.57
2022-08-20T01:58:39.407Z,13.17
2022-08-20T02:04:34.889Z,11.70
2022-08-20T02:10:31.811Z,13.23
2022-08-20T02:16:29.738Z,12.53
2022-08-20T02:22:28.447Z,11.70
2022-08-20T02:28:23.727Z,11.70
2022-08-20T02:34:22.822Z,11.50
2022-08-20T02:40:30.342Z,11.30
2022-08-20T02:46:24.860Z,12.10
2022-08-20T02:52:17.854Z,11.47
2022-08-20T02:58:12.979Z,12.87
2022-08-20T03:04:06.468Z,11.03
2022-08-20T03:10:00.141Z,11.90
2022-08-20T03:15:58.993Z,10.63
2022-08-20T03:21:52.377Z,11.17
2022-08-20T03:27:47.129Z,9.83
2022-08-20T03:33:53.050Z,9.77
2022-08-20T03:39:46.973Z,11.43
2022-08-20T03:45:42.627Z,9.10
2022-08-20T03:51:57.109Z,9.07
2022-08-20T03:57:53.453Z,9.27
2022-08-20T04:03:49.981Z,7.90
2022-08-20T04:09:46.649Z,8.00
2022-08-20T04:15:40.673Z,7.97
2022-08-20T04:21:35.918Z,6.73
2022-08-20T04:27:32.947Z,7.87
2022-08-20T04:33:34.123Z,7.33
2022-08-20T04:39:28.674Z,6.67
2022-08-20T04:45:23.163Z,6.40
2022-08-20T04:51:16.139Z,6.00
2022-08-20T04:57:09.609Z,7.37
2022-08-20T05:03:04.477Z,7.03
2022-08-20T05:08:59.761Z,6.30
2022-08-20T05:14:52.793Z,7.50
2022-08-20T05:20:48.559Z,8.10
2022-08-20T05:26:41.819Z,7.40
2022-08-20T05:32:35.959Z,7.77
2022-08-20T05:38:39.354Z,6.27
2022-08-20T05:44:32.495Z,7.70
2022-08-20T05:50:26.268Z,8.77
2022-08-20T05:56:26.650Z,10.20
2022-08-20T06:02:38.327Z,8.73
2022-08-20T06:08:32.509Z,9.90
2022-08-20T06:14:27.241Z,10.67
2022-08-20T06:20:20.215Z,10.80
2022-08-20T06:26:13.951Z,9.63
2022-08-20T06:32:09.094Z,11.13
2022-08-20T06:38:02.659Z,10.33
2022-08-20T06:43:56.781Z,11.37
2022-08-20T06:49:51.520Z,12.00
2022-08-20T06:55:48.589Z,12.80
2022-08-20T07:01:41.952Z,9.60
2022-08-20T07:07:37.173Z,11.60
2022-08-20T07:13:30.892Z,9.57
2022-08-20T07:19:24.813Z,9.43
2022-08-20T07:25:21.705Z,11.20
2022-08-20T07:31:32.841Z,8.90
2022-08-20T07:37:28.612Z,8.20
2022-08-20T07:43:24.559Z,7.43
2022-08-20T07:49:17.987Z,7.40
2022-08-20T07:55:15.333Z,5.63
2022-08-20T08:01:11.156Z,6.87
2022-08-20T08:07:04.876Z,5.43
2022-08-20T08:13:02.287Z,5.80
2022-08-20T08:18:58.796Z,5.63
2022-08-20T08:24:56.771Z,5.40
2022-08-20T08:30:51.103Z,4.23
2022-08-20T08:36:45.841Z,4.00
2022-08-20T08:42:43.976Z,3.40
2022-08-20T08:48:43.541Z,3.80
2022-08-20T08:54:41.219Z,3.43
2022-08-20T09:00:37.441Z,3.00
2022-08-20T09:06:50.463Z,2.60
2022-08-20T09:12:47.857Z,3.00
2022-08-20T09:18:41.472Z,2.73
2022-08-20T09:24:34.788Z,2.97
2022-08-20T09:30:29.794Z,2.20
2022-08-20T09:36:32.167Z,2.60
2022-08-20T09:42:29.626Z,2.67
2022-08-20T09:48:31.942Z,2.10
2022-08-20T09:54:30.291Z,2.70
2022-08-20T10:00:23.986Z,2.13
2022-08-20T10:06:20.727Z,1.97
2022-08-20T10:12:14.433Z,2.53
2022-08-20T10:18:07.922Z,2.30
2022-08-20T10:24:02.813Z,2.50
2022-08-20T10:29:56.195Z,1.80
2022-08-20T10:35:49.240Z,2.80
2022-08-20T10:41:45.338Z,2.13
2022-08-20T10:47:38.738Z,2.67
2022-08-20T10:53:32.390Z,2.07
2022-08-20T10:59:27.087Z,2.10
2022-08-20T11:05:20.572Z,2.60
2022-08-20T11:11:13.633Z,2.40
2022-08-20T11:17:08.812Z,1.90
2022-08-20T11:23:02.575Z,1.80
2022-08-20T11:28:55.924Z,2.53
2022-08-20T11:34:50.911Z,2.67
2022-08-20T11:40:43.929Z,2.07
2022-08-20T11:46:36.909Z,2.67
2022-08-20T11:52:31.649Z,3.03
2022-08-20T11:58:25.043Z,2.00
2022-08-20T12:04:18.402Z,3.20
2022-08-20T12:10:14.177Z,1.80
2022-08-20T12:16:07.908Z,2.43
2022-08-20T12:22:00.842Z,2.00
2022-08-20T12:28:16.012Z,2.30
2022-08-20T12:34:09.465Z,1.80
2022-08-20T12:40:06.482Z,1.90
2022-08-20T12:46:00.904Z,1.67
2022-08-20T12:51:54.355Z,1.80
2022-08-20T12:57:49.781Z,1.87
2022-08-20T13:03:45.080Z,2.13
2022-08-20T13:09:40.462Z,2.00
2022-08-20T13:15:34.109Z,1.50
2022-08-20T13:21:28.612Z,1.40
2022-08-20T13:27:23.089Z,1.23
2022-08-20T13:33:17.010Z,1.27
2022-08-20T13:39:11.725Z,1.20
2022-08-20T13:45:06.248Z,1.53
2022-08-20T13:50:59.310Z,1.30
2022-08-20T13:56:53.722Z,1.60
2022-08-20T14:02:47.445Z,1.40
2022-08-20T14:08:40.774Z,1.40
2022-08-20T14:14:35.521Z,1.10
2022-08-20T14:20:32.093Z,1.10
2022-08-20T14:26:25.342Z,1.50
2022-08-20T14:32:21.140Z,1.60
2022-08-20T14:38:14.488Z,1.37
2022-08-20T14:44:07.425Z,1.00
2022-08-20T14:50:05.204Z,0.97
2022-08-20T14:55:58.605Z,1.30
2022-08-20T15:01:52.111Z,1.53
2022-08-20T15:07:48.998Z,1.40
2022-08-20T15:13:45.127Z,1.30
2022-08-20T15:19:38.542Z,1.10
2022-08-20T15:25:36.865Z,1.20
2022-08-20T15:31:31.129Z,0.90
2022-08-20T15:37:26.348Z,1.23
2022-08-20T15:43:21.024Z,1.00
2022-08-20T15:49:14.444Z,0.97
2022-08-20T15:55:09.221Z,1.10
2022-08-20T16:01:24.378Z,0.90
2022-08-20T16:07:22.311Z,1.53
2022-08-20T16:13:30.180Z,0.77
2022-08-20T16:19:30.382Z,1.43
2022-08-20T16:25:29.054Z,1.53
2022-08-20T16:31:27.522Z,1.10
2022-08-20T16:37:31.364Z,1.10
2022-08-20T16:43:30.348Z,1.20
2022-08-20T16:49:27.557Z,1.00
2022-08-20T16:55:25.064Z,1.90
2022-08-20T17:01:26.404Z,1.10
2022-08-20T17:07:29.827Z,1.37
2022-08-20T17:13:32.091Z,1.17
2022-08-20T17:19:29.898Z,1.53
2022-08-20T17:25:31.678Z,1.40
2022-08-20T17:31:38.902Z,0.90
2022-08-20T17:37:35.788Z,1.30
2022-08-20T17:43:35.080Z,1.40
2022-08-20T17:49:44.554Z,1.50
2022-08-20T17:55:58.704Z,1.53
2022-08-20T18:01:54.593Z,1.30
2022-08-20T18:08:06.640Z,1.30
2022-08-20T18:14:19.013Z,1.23
2022-08-20T18:20:32.114Z,1.17
2022-08-20T18:26:34.105Z,1.07
2022-08-20T18:32:32.608Z,1.70
2022-08-20T18:38:32.347Z,1.30
2022-08-20T18:44:37.272Z,1.30
2022-08-20T18:50:34.811Z,1.30
2022-08-20T18:56:35.670Z,1.60
2022-08-20T19:02:34.149Z,1.40
2022-08-20T19:08:42.490Z,2.00
2022-08-20T19:15:01.451Z,2.60
2022-08-20T19:21:00.427Z,2.23
2022-08-20T19:26:57.791Z,2.10
2022-08-20T19:32:53.464Z,1.33
2022-08-20T19:38:51.253Z,1.27
2022-08-20T19:44:47.749Z,1.87
2022-08-20T19:50:46.903Z,1.70
2022-08-20T19:56:42.526Z,2.53
2022-08-20T20:02:36.574Z,1.80
2022-08-20T20:08:38.583Z,1.50
2022-08-20T20:14:35.177Z,2.00
2022-08-20T20:20:31.911Z,2.07
2022-08-20T20:26:26.014Z,1.67
2022-08-20T20:32:25.552Z,1.50
2022-08-20T20:38:27.957Z,1.90
2022-08-20T20:44:23.288Z,1.97
2022-08-20T20:50:29.863Z,1.80
2022-08-20T20:56:32.150Z,1.90
2022-08-20T21:02:25.504Z,2.47
2022-08-20T21:08:20.771Z,1.63
2022-08-20T21:14:13.878Z,1.80
2022-08-20T21:20:09.267Z,2.03
2022-08-20T21:26:05.028Z,2.13
2022-08-20T21:31:59.345Z,2.13
2022-08-20T21:37:53.137Z,2.40
2022-08-20T21:43:49.533Z,1.90
2022-08-20T21:49:42.944Z,2.20
2022-08-20T21:55:39.533Z,2.17
2022-08-20T22:01:34.241Z,2.37
2022-08-20T22:07:27.924Z,2.83
2022-08-20T22:13:21.958Z,1.90
2022-08-20T22:19:16.687Z,2.00
2022-08-20T22:25:12.796Z,2.43
2022-08-20T22:31:07.741Z,2.20
2022-08-20T22:37:04.243Z,2.10
2022-08-20T22:42:57.463Z,2.20
2022-08-20T22:48:50.957Z,2.00
2022-08-20T22:54:46.649Z,2.20
2022-08-20T23:00:40.571Z,2.03
2022-08-20T23:06:34.113Z,2.40
2022-08-20T23:12:28.842Z,2.50
2022-08-20T23:18:22.353Z,1.70
2022-08-20T23:24:15.446Z,2.63
2022-08-20T23:30:11.365Z,2.00
2022-08-20T23:36:06.746Z,2.40
2022-08-20T23:42:00.470Z,2.13
2022-08-20T23:47:55.184Z,2.47
2022-08-20T23:53:48.576Z,2.40
2022-08-20T23:59:42.272Z,2.40
